Time;durP1;ratioP1;P1;durP2;ratioP2;P2;SDS_P1;SDS_P2;PMS_P1;PMS_P2;Temp;Humidity;BMP_temperature;BMP_pressure;BME280_temperature;BME280_humidity;BME280_pressure;Samples;Min_cycle;Max_cycle;Signal;HPM_P1;HPM_P2
2023/10/23 00:00:28;;;;;;;8.70;8.60;;;8.50;99.90;;;;;;5023948;28;20458;-70
2023/10/23 00:02:55;;;;;;;9.17;8.97;;;8.40;99.90;;;;;;5016478;28;20483;-70
2023/10/23 00:05:22;;;;;;;8.80;8.70;;;8.30;99.90;;;;;;5016445;28;20468;-69
2023/10/23 00:07:50;;;;;;;9.50;9.30;;;8.20;99.90;;;;;;5022560;28;20481;-72
2023/10/23 00:10:16;;;;;;;9.17;8.97;;;8.20;99.90;;;;;;5043294;28;20963;-72
2023/10/23 00:12:44;;;;;;;9.70;9.50;;;8.20;99.90;;;;;;5015643;28;20462;-70
2023/10/23 00:15:11;;;;;;;10.30;10.10;;;8.10;99.90;;;;;;5015077;28;20480;-72
2023/10/23 00:17:38;;;;;;;9.43;9.23;;;8.00;99.90;;;;;;5026014;28;20453;-72
2023/10/23 00:20:06;;;;;;;9.77;9.57;;;8.10;99.90;;;;;;5018909;28;20811;-71
2023/10/23 00:22:34;;;;;;;9.50;9.30;;;8.00;99.90;;;;;;5022914;28;20449;-70
2023/10/23 00:25:01;;;;;;;9.90;9.70;;;8.00;99.90;;;;;;5011329;28;20494;-71
2023/10/23 00:27:28;;;;;;;8.67;8.57;;;8.00;99.90;;;;;;5024667;28;20544;-70
2023/10/23 00:29:57;;;;;;;9.70;9.50;;;7.90;99.90;;;;;;5020655;28;20496;-71
2023/10/23 00:32:24;;;;;;;8.97;8.83;;;7.90;99.90;;;;;;5025679;27;20463;-70
2023/10/23 00:34:51;;;;;;;9.43;9.23;;;7.90;99.90;;;;;;5019549;27;20527;-71
2023/10/23 00:37:18;;;;;;;9.10;8.90;;;7.80;99.90;;;;;;5064460;27;20452;-72
2023/10/23 00:39:45;;;;;;;8.60;8.50;;;7.80;99.90;;;;;;5018785;27;20489;-70
2023/10/23 00:42:11;;;;;;;8.70;8.60;;;7.80;99.90;;;;;;5029204;27;20473;-70
2023/10/23 00:44:40;;;;;;;9.40;9.20;;;7.70;99.90;;;;;;5024187;27;20506;-72
2023/10/23 00:47:10;;;;;;;8.80;8.67;;;7.60;99.90;;;;;;5026743;27;20456;-71
2023/10/23 00:49:37;;;;;;;9.07;8.87;;;7.60;99.90;;;;;;5027017;27;20497;-71
2023/10/23 00:52:06;;;;;;;9.77;9.57;;;7.60;99.90;;;;;;5021001;27;20894;-71
2023/10/23 00:54:33;;;;;;;10.37;10.17;;;7.60;99.90;;;;;;5016032;27;20460;-71
2023/10/23 00:57:00;;;;;;;9.80;9.60;;;7.80;99.90;;;;;;5021019;27;20899;-71
2023/10/23 00:59:26;;;;;;;9.40;9.20;;;7.80;99.90;;;;;;5025027;27;20460;-70
2023/10/23 01:01:54;;;;;;;10.13;9.93;;;7.80;99.90;;;;;;5023904;27;20781;-70
2023/10/23 01:04:23;;;;;;;9.73;9.53;;;7.90;99.90;;;;;;5024562;27;20469;-70
2023/10/23 01:06:50;;;;;;;8.87;8.73;;;7.90;99.90;;;;;;5009218;27;20921;-69
2023/10/23 01:09:17;;;;;;;9.20;9.00;;;7.90;99.90;;;;;;5019417;27;20933;-70
2023/10/23 01:11:44;;;;;;;8.93;8.77;;;7.80;99.90;;;;;;5028685;28;20453;-70
2023/10/23 01:14:11;;;;;;;8.50;8.40;;;7.90;99.90;;;;;;5022816;27;20474;-69
2023/10/23 01:16:38;;;;;;;8.40;8.30;;;7.80;99.90;;;;;;5028348;27;20461;-70
2023/10/23 01:19:05;;;;;;;9.00;8.80;;;7.70;99.90;;;;;;5020197;27;20477;-70
2023/10/23 01:21:34;;;;;;;9.37;9.17;;;7.60;99.90;;;;;;5028502;27;20453;-69
2023/10/23 01:24:01;;;;;;;9.40;9.20;;;7.60;99.90;;;;;;5028136;27;20482;-71
2023/10/23 01:26:30;;;;;;;9.37;9.17;;;7.50;99.90;;;;;;5023883;27;20457;-70
2023/10/23 01:28:57;;;;;;;9.50;9.30;;;7.50;99.90;;;;;;5019806;27;20493;-70
2023/10/23 01:31:23;;;;;;;9.87;9.67;;;7.50;99.90;;;;;;5027088;27;20446;-70
2023/10/23 01:33:50;;;;;;;11.03;10.73;;;7.50;99.90;;;;;;5031432;27;20473;-70
2023/10/23 01:36:17;;;;;;;11.03;10.73;;;7.60;99.90;;;;;;5014924;28;20469;-70
2023/10/23 01:38:44;;;;;;;9.77;9.57;;;7.80;99.90;;;;;;5024919;27;20473;-71
2023/10/23 01:41:11;;;;;;;9.43;9.23;;;7.80;99.90;;;;;;5027985;27;20465;-69
2023/10/23 01:43:39;;;;;;;9.20;9.00;;;7.70;99.90;;;;;;5048448;27;20471;-71
2023/10/23 01:46:06;;;;;;;9.30;9.10;;;7.60;99.90;;;;;;5018482;27;20492;-72
2023/10/23 01:48:34;;;;;;;9.20;9.00;;;7.50;99.90;;;;;;5026069;27;20557;-69
2023/10/23 01:51:01;;;;;;;9.20;9.00;;;7.40;99.90;;;;;;5018406;27;20465;-70
2023/10/23 01:53:28;;;;;;;9.10;8.90;;;7.30;99.90;;;;;;5018013;28;20549;-70
2023/10/23 01:55:55;;;;;;;10.50;10.30;;;7.30;99.90;;;;;;5025832;27;20461;-70
2023/10/23 01:58:22;;;;;;;9.17;8.97;;;7.30;99.90;;;;;;5019605;28;20473;-72
2023/10/23 02:00:51;;;;;;;11.10;10.80;;;7.40;99.90;;;;;;5019412;28;20792;-70
2023/10/23 02:03:18;;;;;;;9.87;9.67;;;7.40;99.90;;;;;;5027826;27;20454;-69
2023/10/23 02:05:46;;;;;;;9.87;9.67;;;7.40;99.90;;;;;;5023878;27;20454;-69
2023/10/23 02:08:13;;;;;;;10.53;10.33;;;7.40;99.90;;;;;;5012313;27;21173;-69
2023/10/23 02:10:40;;;;;;;10.50;10.30;;;7.40;99.90;;;;;;5026983;27;20458;-70
2023/10/23 02:13:06;;;;;;;9.30;9.10;;;7.30;99.90;;;;;;5017701;27;20477;-69
2023/10/23 02:15:33;;;;;;;9.63;9.43;;;7.30;99.90;;;;;;5022727;28;20556;-70
2023/10/23 02:18:01;;;;;;;10.10;9.90;;;7.30;99.90;;;;;;5027560;27;20789;-69
2023/10/23 02:20:28;;;;;;;10.53;10.33;;;7.30;99.90;;;;;;5025975;28;20868;-69
2023/10/23 02:22:55;;;;;;;10.30;10.10;;;7.30;99.90;;;;;;5028496;27;20457;-68
2023/10/23 02:25:22;;;;;;;9.70;9.50;;;7.30;99.90;;;;;;5013329;27;20828;-69
2023/10/23 02:27:49;;;;;;;10.13;9.93;;;7.20;99.90;;;;;;5021548;27;20456;-69
2023/10/23 02:30:16;;;;;;;10.20;10.00;;;7.20;99.90;;;;;;5021348;28;20557;-70
2023/10/23 02:32:43;;;;;;;9.83;9.63;;;7.30;99.90;;;;;;5026618;27;20869;-69
2023/10/23 02:35:11;;;;;;;9.60;9.40;;;7.30;99.90;;;;;;5023434;28;20465;-69
2023/10/23 02:37:39;;;;;;;9.43;9.23;;;7.30;99.90;;;;;;5019309;27;20457;-70
2023/10/23 02:40:07;;;;;;;10.20;10.00;;;7.20;99.90;;;;;;5025072;28;20492;-69
2023/10/23 02:42:34;;;;;;;11.30;11.00;;;7.20;99.90;;;;;;5023022;28;20949;-69
2023/10/23 02:45:01;;;;;;;11.50;11.20;;;7.30;99.90;;;;;;5010111;27;20488;-70
2023/10/23 02:47:29;;;;;;;11.37;11.07;;;7.40;99.90;;;;;;5020540;27;20466;-70
2023/10/23 02:49:56;;;;;;;9.77;9.57;;;7.50;99.90;;;;;;5026517;27;20485;-69
2023/10/23 02:52:26;;;;;;;9.47;9.27;;;7.40;99.90;;;;;;5021982;28;20457;-69
2023/10/23 02:54:53;;;;;;;10.40;10.20;;;7.20;99.90;;;;;;5013533;27;20867;-70
2023/10/23 02:57:20;;;;;;;10.00;9.80;;;7.10;99.90;;;;;;5019683;28;20477;-69
2023/10/23 02:59:48;;;;;;;10.50;10.30;;;7.10;99.90;;;;;;5025411;27;20867;-69
2023/10/23 03:02:16;;;;;;;10.80;10.60;;;7.10;99.90;;;;;;5026558;28;20459;-69
2023/10/23 03:04:44;;;;;;;11.03;10.73;;;7.00;99.90;;;;;;5021735;28;20502;-70
2023/10/23 03:07:11;;;;;;;10.40;10.20;;;7.10;99.90;;;;;;5017758;27;20469;-69
2023/10/23 03:09:40;;;;;;;10.33;10.13;;;7.10;99.90;;;;;;5030545;27;20492;-69
2023/10/23 03:12:08;;;;;;;10.70;10.50;;;7.00;99.90;;;;;;5014355;28;20465;-71
2023/10/23 03:14:35;;;;;;;11.10;10.80;;;7.00;99.90;;;;;;5018926;27;20926;-70
2023/10/23 03:17:02;;;;;;;10.80;10.57;;;7.00;99.90;;;;;;5024963;28;20924;-69
2023/10/23 03:19:29;;;;;;;11.23;10.93;;;7.00;99.90;;;;;;5026365;28;20669;-69
2023/10/23 03:21:57;;;;;;;11.40;11.10;;;7.10;99.90;;;;;;5019219;28;20551;-68
2023/10/23 03:24:24;;;;;;;11.10;10.80;;;7.10;99.90;;;;;;5022618;28;20489;-69
2023/10/23 03:26:53;;;;;;;10.80;10.60;;;7.10;99.90;;;;;;5019823;28;20974;-69
2023/10/23 03:29:19;;;;;;;10.43;10.23;;;7.00;99.90;;;;;;5032262;27;20500;-70
2023/10/23 03:31:46;;;;;;;10.03;9.83;;;7.00;99.90;;;;;;5019565;28;20513;-69
2023/10/23 03:34:13;;;;;;;10.30;10.10;;;7.00;99.90;;;;;;5046283;27;21007;-69
2023/10/23 03:36:40;;;;;;;9.50;9.30;;;7.00;99.90;;;;;;5025969;28;21012;-71
2023/10/23 03:39:07;;;;;;;10.00;9.80;;;7.00;99.90;;;;;;5026277;28;20490;-71
2023/10/23 03:41:34;;;;;;;9.80;9.60;;;7.10;99.90;;;;;;5014179;28;20497;-70
2023/10/23 03:44:04;;;;;;;10.10;9.90;;;7.10;99.90;;;;;;5033596;28;20819;-69
2023/10/23 03:46:32;;;;;;;8.93;8.80;;;7.10;99.90;;;;;;5015576;28;20458;-70
2023/10/23 03:48:59;;;;;;;9.63;9.43;;;7.20;99.90;;;;;;5018211;28;20481;-69
2023/10/23 03:51:25;;;;;;;9.63;9.43;;;7.30;99.90;;;;;;5020227;28;20457;-70
2023/10/23 03:53:52;;;;;;;9.37;9.17;;;7.30;99.90;;;;;;5030961;28;20461;-71
2023/10/23 03:56:19;;;;;;;8.70;8.60;;;7.30;99.90;;;;;;5023717;28;20832;-69
2023/10/23 03:58:46;;;;;;;9.10;8.90;;;7.20;99.90;;;;;;5009076;28;20883;-70
2023/10/23 04:01:14;;;;;;;9.50;9.30;;;7.20;99.90;;;;;;5020938;28;21009;-69
2023/10/23 04:03:41;;;;;;;8.93;8.83;;;7.30;99.90;;;;;;5024614;28;21087;-69
2023/10/23 04:06:08;;;;;;;9.07;8.87;;;7.20;99.90;;;;;;5021717;28;20541;-70
2023/10/23 04:08:35;;;;;;;8.77;8.67;;;7.20;99.90;;;;;;5027327;27;20473;-69
2023/10/23 04:11:03;;;;;;;9.20;9.00;;;7.10;99.90;;;;;;5017597;27;20466;-70
2023/10/23 04:13:31;;;;;;;8.97;8.77;;;7.10;99.90;;;;;;5021961;27;20519;-71
2023/10/23 04:15:59;;;;;;;9.83;9.63;;;7.10;99.90;;;;;;5023526;27;20456;-69
2023/10/23 04:18:28;;;;;;;10.57;10.37;;;7.00;99.90;;;;;;5026669;27;20477;-69
2023/10/23 04:21:03;;;;;;;10.47;10.27;;;6.90;99.90;;;;;;5019128;27;20996;-69
2023/10/23 04:23:31;;;;;;;9.37;9.17;;;6.90;99.90;;;;;;5017962;27;21789;-69
2023/10/23 04:25:59;;;;;;;9.70;9.50;;;6.90;99.90;;;;;;5025673;27;20453;-69
2023/10/23 04:28:26;;;;;;;9.20;9.00;;;7.00;99.90;;;;;;5029190;27;20449;-71
2023/10/23 04:30:53;;;;;;;9.90;9.70;;;7.10;99.90;;;;;;5018457;27;20492;-69
2023/10/23 04:33:23;;;;;;;10.23;10.03;;;7.10;99.90;;;;;;5023297;27;20465;-69
2023/10/23 04:35:52;;;;;;;10.00;9.80;;;7.10;99.90;;;;;;5028367;27;20461;-70
2023/10/23 04:38:19;;;;;;;10.30;10.10;;;7.20;99.90;;;;;;5032546;27;20545;-71
2023/10/23 04:40:46;;;;;;;9.70;9.50;;;7.20;99.90;;;;;;5020322;27;20446;-70
2023/10/23 04:43:13;;;;;;;9.50;9.30;;;7.10;99.90;;;;;;5027619;27;20491;-71
2023/10/23 04:45:40;;;;;;;9.50;9.30;;;7.00;99.90;;;;;;5027929;27;20480;-69
2023/10/23 04:48:09;;;;;;;9.53;9.33;;;6.90;99.90;;;;;;5024798;27;20552;-71
2023/10/23 04:50:37;;;;;;;9.70;9.50;;;6.90;99.90;;;;;;5022813;27;20488;-69
2023/10/23 04:53:05;;;;;;;10.30;10.10;;;6.80;99.90;;;;;;5024692;27;20467;-70
2023/10/23 04:55:33;;;;;;;9.90;9.70;;;6.80;99.90;;;;;;5022626;27;20455;-70
2023/10/23 04:58:00;;;;;;;11.20;10.90;;;6.70;99.90;;;;;;5028986;27;20457;-70
2023/10/23 05:00:27;;;;;;;10.77;10.57;;;6.80;99.90;;;;;;5019561;27;20469;-69
2023/10/23 05:02:54;;;;;;;10.50;10.30;;;6.80;99.90;;;;;;5016132;27;20476;-70
2023/10/23 05:05:21;;;;;;;10.23;10.03;;;6.90;99.90;;;;;;5012695;27;20741;-70
2023/10/23 05:07:48;;;;;;;10.73;10.53;;;6.90;99.90;;;;;;5015756;27;20498;-70
2023/10/23 05:10:16;;;;;;;10.13;9.93;;;6.80;99.90;;;;;;5016828;27;20542;-70
2023/10/23 05:12:43;;;;;;;10.20;10.00;;;6.80;99.90;;;;;;5021362;28;20460;-70
2023/10/23 05:15:11;;;;;;;9.47;9.27;;;6.90;99.90;;;;;;5020891;27;20469;-69
2023/10/23 05:17:37;;;;;;;9.87;9.67;;;6.90;99.90;;;;;;5017597;27;20580;-69
2023/10/23 05:20:05;;;;;;;10.37;10.17;;;6.90;99.90;;;;;;5025619;27;20469;-70
2023/10/23 05:22:32;;;;;;;10.67;10.47;;;6.90;99.90;;;;;;5016730;27;20465;-69
2023/10/23 05:24:58;;;;;;;10.30;10.10;;;6.80;99.90;;;;;;5014135;28;20470;-69
2023/10/23 05:27:27;;;;;;;10.50;10.30;;;6.70;99.90;;;;;;5016426;27;20470;-70
2023/10/23 05:29:54;;;;;;;11.27;10.97;;;6.70;99.90;;;;;;5027341;27;20493;-69
2023/10/23 05:32:20;;;;;;;10.33;10.13;;;6.60;99.90;;;;;;5016781;28;20465;-69
2023/10/23 05:34:47;;;;;;;11.10;10.80;;;6.60;99.90;;;;;;5025690;27;20975;-69
2023/10/23 05:37:14;;;;;;;11.33;11.03;;;6.60;99.90;;;;;;5024973;28;20454;-69
2023/10/23 05:39:41;;;;;;;11.83;11.53;;;6.60;99.90;;;;;;5017119;27;20492;-68
2023/10/23 05:42:08;;;;;;;12.20;11.90;;;6.70;99.90;;;;;;5025205;27;20457;-70
2023/10/23 05:44:36;;;;;;;11.60;11.30;;;6.60;99.90;;;;;;5021298;27;20504;-70
2023/10/23 05:47:03;;;;;;;12.47;12.13;;;6.60;99.90;;;;;;5014727;27;20838;-68
2023/10/23 05:49:29;;;;;;;11.80;11.50;;;6.50;99.90;;;;;;5021664;27;20833;-69
2023/10/23 05:51:56;;;;;;;11.47;11.17;;;6.50;99.90;;;;;;5020473;27;20933;-69
2023/10/23 05:54:25;;;;;;;12.20;11.90;;;6.50;99.90;;;;;;5026979;27;20460;-69
2023/10/23 05:56:51;;;;;;;12.40;12.10;;;6.50;99.90;;;;;;5022311;27;20463;-70
2023/10/23 05:59:18;;;;;;;12.03;11.73;;;6.50;99.90;;;;;;5018537;27;20465;-70
2023/10/23 06:01:46;;;;;;;11.90;11.60;;;6.50;99.90;;;;;;5029366;27;20995;-70
2023/10/23 06:04:14;;;;;;;12.33;12.03;;;6.50;99.90;;;;;;5038356;27;20469;-69
2023/10/23 06:06:41;;;;;;;12.13;11.83;;;6.50;99.90;;;;;;5025391;27;20468;-70
2023/10/23 06:09:08;;;;;;;11.33;11.03;;;6.60;99.90;;;;;;5019906;27;20472;-69
2023/10/23 06:11:35;;;;;;;11.50;11.20;;;6.60;99.90;;;;;;5022415;27;20972;-70
2023/10/23 06:14:03;;;;;;;11.37;11.07;;;6.80;99.90;;;;;;5023762;27;20465;-69
2023/10/23 06:16:29;;;;;;;10.87;10.67;;;6.80;99.90;;;;;;5015841;28;20458;-69
2023/10/23 06:18:57;;;;;;;10.80;10.60;;;6.80;99.90;;;;;;5026526;27;20468;-68
2023/10/23 06:21:24;;;;;;;10.00;9.80;;;6.90;99.90;;;;;;5025709;27;20464;-69
2023/10/23 06:23:51;;;;;;;10.10;9.90;;;7.00;99.90;;;;;;5018105;27;20467;-69
2023/10/23 06:26:18;;;;;;;11.20;10.90;;;7.00;99.90;;;;;;5012296;27;20465;-69
2023/10/23 06:28:45;;;;;;;9.77;9.57;;;6.90;99.90;;;;;;5009697;27;20462;-69
2023/10/23 06:31:12;;;;;;;9.87;9.67;;;7.00;99.90;;;;;;5013211;27;20595;-69
2023/10/23 06:33:42;;;;;;;10.27;10.07;;;6.90;99.90;;;;;;5011769;27;20776;-69
2023/10/23 06:36:10;;;;;;;10.20;10.00;;;6.90;99.90;;;;;;5012580;27;20470;-68
2023/10/23 06:38:38;;;;;;;9.70;9.50;;;7.10;99.90;;;;;;5011717;27;20490;-69
2023/10/23 06:41:05;;;;;;;9.47;9.27;;;7.20;99.90;;;;;;5014223;28;20976;-69
2023/10/23 06:43:32;;;;;;;8.80;8.70;;;7.40;99.90;;;;;;5006098;27;20468;-69
2023/10/23 06:45:59;;;;;;;8.60;8.50;;;7.50;99.90;;;;;;5009158;27;20500;-68
2023/10/23 06:48:26;;;;;;;8.00;7.90;;;7.50;99.90;;;;;;5014944;27;20466;-68
2023/10/23 06:50:54;;;;;;;7.53;7.43;;;7.60;99.90;;;;;;5025551;27;20489;-69
2023/10/23 06:53:22;;;;;;;8.77;8.67;;;7.60;99.90;;;;;;5030829;27;20457;-68
2023/10/23 06:55:48;;;;;;;8.90;8.80;;;7.80;99.90;;;;;;5029744;27;20461;-69
2023/10/23 06:58:15;;;;;;;8.07;7.97;;;7.90;99.90;;;;;;5024669;27;21064;-68
2023/10/23 07:00:42;;;;;;;7.80;7.70;;;7.90;99.90;;;;;;5011441;27;20465;-68
2023/10/23 07:03:09;;;;;;;7.90;7.80;;;7.90;99.90;;;;;;5008684;28;20552;-69
2023/10/23 07:05:36;;;;;;;7.30;7.20;;;7.90;99.90;;;;;;5011490;28;20852;-69
2023/10/23 07:08:04;;;;;;;8.47;8.37;;;7.90;99.90;;;;;;5006951;28;20522;-70
2023/10/23 07:10:33;;;;;;;6.20;6.10;;;8.00;99.90;;;;;;5013564;27;20592;-70
2023/10/23 07:13:00;;;;;;;6.73;6.63;;;8.00;99.90;;;;;;5011145;28;20452;-70
2023/10/23 07:15:27;;;;;;;6.60;6.50;;;8.00;99.90;;;;;;5013819;28;20718;-70
2023/10/23 07:17:54;;;;;;;6.03;5.93;;;8.10;99.90;;;;;;5011373;27;20496;-69
2023/10/23 07:20:22;;;;;;;6.30;6.20;;;8.10;99.90;;;;;;5005632;28;20472;-69
2023/10/23 07:22:48;;;;;;;6.77;6.67;;;8.20;99.90;;;;;;5007119;28;21421;-70
2023/10/23 07:25:15;;;;;;;5.87;5.77;;;8.30;99.90;;;;;;5012901;28;20457;-69
2023/10/23 07:27:43;;;;;;;5.83;5.73;;;8.30;99.90;;;;;;5007767;27;20587;-70
2023/10/23 07:30:13;;;;;;;6.03;5.93;;;8.40;99.90;;;;;;5019010;28;21025;-70
2023/10/23 07:32:40;;;;;;;6.10;6.00;;;8.50;99.90;;;;;;5028514;28;20470;-70
2023/10/23 07:35:09;;;;;;;5.37;5.27;;;8.60;99.90;;;;;;5037792;27;20476;-71
2023/10/23 07:37:36;;;;;;;5.87;5.77;;;8.60;99.90;;;;;;5035708;27;21165;-71
2023/10/23 07:40:04;;;;;;;5.87;5.77;;;8.70;99.90;;;;;;5030985;28;20472;-70
2023/10/23 07:42:31;;;;;;;6.67;6.57;;;8.80;99.90;;;;;;5031436;27;20473;-69
2023/10/23 07:44:59;;;;;;;6.90;6.80;;;8.90;99.90;;;;;;5030942;27;20838;-71
2023/10/23 07:47:28;;;;;;;6.83;6.73;;;8.90;99.90;;;;;;5029645;27;20453;-70
2023/10/23 07:49:54;;;;;;;6.97;6.87;;;9.00;99.90;;;;;;5028548;27;20584;-71
2023/10/23 07:52:22;;;;;;;7.57;7.47;;;9.10;99.90;;;;;;5031142;27;20514;-71
2023/10/23 07:54:48;;;;;;;7.17;7.07;;;9.20;99.90;;;;;;5017048;27;20469;-70
2023/10/23 07:57:15;;;;;;;7.00;6.90;;;9.30;99.90;;;;;;5019376;27;20850;-71
2023/10/23 07:59:42;;;;;;;7.27;7.17;;;9.40;99.90;;;;;;5016910;27;20753;-71
2023/10/23 08:02:10;;;;;;;6.97;6.87;;;9.40;99.90;;;;;;5018968;27;20600;-71
2023/10/23 08:04:37;;;;;;;7.60;7.50;;;9.50;99.90;;;;;;5031622;27;21434;-71
2023/10/23 08:07:04;;;;;;;8.20;8.10;;;9.50;99.90;;;;;;5014765;27;20936;-70
2023/10/23 08:09:31;;;;;;;9.13;8.93;;;9.60;99.90;;;;;;5021791;27;20863;-71
2023/10/23 08:11:58;;;;;;;8.00;7.90;;;9.70;99.90;;;;;;5017621;27;20500;-70
2023/10/23 08:14:25;;;;;;;9.07;8.87;;;9.70;99.90;;;;;;5014619;27;20466;-70
2023/10/23 08:16:52;;;;;;;8.40;8.30;;;9.80;99.90;;;;;;5019546;27;21046;-71
2023/10/23 08:19:21;;;;;;;8.23;8.13;;;9.80;99.90;;;;;;5006096;27;20979;-71
2023/10/23 08:21:49;;;;;;;8.70;8.60;;;9.80;99.90;;;;;;5007847;27;20573;-70
2023/10/23 08:24:16;;;;;;;8.43;8.33;;;10.00;99.90;;;;;;5014109;27;21164;-71
2023/10/23 08:26:43;;;;;;;8.30;8.20;;;10.10;99.90;;;;;;5018190;27;20469;-70
2023/10/23 08:29:10;;;;;;;9.17;8.97;;;10.20;99.90;;;;;;5018685;27;20470;-70
2023/10/23 08:31:36;;;;;;;10.00;9.80;;;10.40;99.90;;;;;;5016361;27;20493;-70
2023/10/23 08:34:03;;;;;;;9.70;9.50;;;10.50;99.90;;;;;;5012722;27;20457;-70
2023/10/23 08:36:32;;;;;;;9.47;9.27;;;10.60;99.90;;;;;;5015806;27;20469;-70
2023/10/23 08:39:00;;;;;;;10.77;10.53;;;10.80;99.90;;;;;;5018630;27;20606;-69
2023/10/23 08:41:27;;;;;;;10.80;10.57;;;10.90;99.90;;;;;;5018421;27;20467;-70
2023/10/23 08:43:55;;;;;;;10.70;10.50;;;11.10;99.90;;;;;;5018673;27;20476;-69
2023/10/23 08:46:24;;;;;;;9.70;9.50;;;11.20;99.90;;;;;;5017582;27;20956;-71
2023/10/23 08:48:52;;;;;;;9.60;9.40;;;11.20;99.90;;;;;;5015319;27;20470;-71
2023/10/23 08:51:20;;;;;;;9.13;8.93;;;11.20;99.90;;;;;;5015911;27;20504;-70
2023/10/23 08:53:52;;;;;;;8.57;8.47;;;11.40;99.90;;;;;;5012553;27;20971;-69
2023/10/23 08:56:20;;;;;;;8.47;8.37;;;11.50;99.90;;;;;;5015193;27;21011;-70
2023/10/23 08:58:56;;;;;;;8.47;8.37;;;11.50;99.90;;;;;;5012461;27;21029;-69
2023/10/23 09:01:24;;;;;;;9.30;9.10;;;11.60;99.90;;;;;;5013202;28;20478;-70
2023/10/23 09:03:52;;;;;;;9.23;9.03;;;11.70;99.90;;;;;;5014192;27;20497;-70
2023/10/23 09:06:19;;;;;;;8.63;8.53;;;11.70;99.90;;;;;;5014961;27;20480;-70
2023/10/23 09:08:46;;;;;;;9.20;9.00;;;11.80;99.90;;;;;;5011409;27;20534;-71
2023/10/23 09:11:14;;;;;;;8.43;8.33;;;12.00;99.90;;;;;;5013249;27;21112;-69
2023/10/23 09:13:42;;;;;;;8.17;8.07;;;11.90;99.90;;;;;;5014988;27;20477;-68
2023/10/23 09:16:11;;;;;;;8.20;8.10;;;12.00;99.90;;;;;;5009686;27;22407;-70
2023/10/23 09:18:46;;;;;;;8.90;8.70;;;12.10;99.90;;;;;;5014607;28;20806;-71
2023/10/23 09:21:15;;;;;;;8.70;8.60;;;12.20;99.90;;;;;;5008958;27;20598;-71
2023/10/23 09:23:51;;;;;;;9.47;9.27;;;12.20;99.90;;;;;;5016340;27;20466;-70
2023/10/23 09:26:19;;;;;;;8.67;8.57;;;12.30;99.90;;;;;;5012168;27;20548;-71
2023/10/23 09:28:47;;;;;;;9.60;9.40;;;12.40;99.90;;;;;;5013544;27;20561;-70
2023/10/23 09:31:14;;;;;;;9.77;9.57;;;12.50;99.90;;;;;;5013865;28;21034;-70
2023/10/23 09:33:41;;;;;;;10.60;10.30;;;12.60;99.90;;;;;;5011815;28;20462;-70
2023/10/23 09:36:10;;;;;;;10.17;9.97;;;12.80;99.90;;;;;;5011750;27;20484;-70
2023/10/23 09:38:39;;;;;;;10.13;9.93;;;12.90;99.90;;;;;;5012488;27;20500;-70
2023/10/23 09:41:08;;;;;;;10.13;9.93;;;13.00;99.90;;;;;;5014212;27;20465;-69
2023/10/23 09:43:44;;;;;;;10.60;10.30;;;13.10;99.90;;;;;;5013914;27;20988;-70
2023/10/23 09:46:12;;;;;;;10.30;10.10;;;13.30;99.90;;;;;;5012601;27;20486;-71
2023/10/23 09:48:40;;;;;;;11.00;10.70;;;13.30;99.90;;;;;;5017284;27;20525;-71
2023/10/23 09:51:12;;;;;;;11.00;10.70;;;13.40;99.90;;;;;;5009108;28;20581;-71
2023/10/23 09:53:40;;;;;;;11.17;10.87;;;13.70;99.90;;;;;;5011848;27;20469;-71
2023/10/23 09:56:08;;;;;;;11.37;11.07;;;13.90;99.90;;;;;;5014293;27;20862;-71
2023/10/23 09:58:41;;;;;;;11.40;11.10;;;14.00;99.90;;;;;;5015827;27;20557;-69
2023/10/23 10:01:11;;;;;;;12.20;11.80;;;14.20;99.90;;;;;;5013862;27;20474;-71
2023/10/23 10:03:41;;;;;;;12.13;11.73;;;14.30;99.90;;;;;;5010754;27;20473;-71
2023/10/23 10:06:14;;;;;;;12.40;12.00;;;14.30;99.90;;;;;;5010517;28;20467;-71
2023/10/23 10:08:46;;;;;;;12.93;12.53;;;14.40;99.90;;;;;;5014102;27;20485;-71
2023/10/23 10:11:14;;;;;;;12.93;12.53;;;14.20;99.90;;;;;;5012976;27;20492;-70
2023/10/23 10:13:44;;;;;;;12.60;12.20;;;14.40;99.90;;;;;;5014436;27;20981;-71
2023/10/23 10:16:12;;;;;;;12.53;12.13;;;14.60;99.90;;;;;;5009944;27;20591;-72
2023/10/23 10:18:42;;;;;;;12.30;11.90;;;14.70;99.90;;;;;;5010879;27;20466;-69
2023/10/23 10:21:12;;;;;;;12.30;11.90;;;14.80;99.90;;;;;;5013743;27;20478;-71
2023/10/23 10:23:40;;;;;;;13.40;13.00;;;14.70;99.90;;;;;;5007930;27;20474;-71
2023/10/23 10:26:07;;;;;;;13.90;13.40;;;14.60;99.90;;;;;;5011500;28;20984;-70
2023/10/23 10:28:38;;;;;;;13.27;12.87;;;14.60;99.90;;;;;;5011077;27;20468;-70
2023/10/23 10:31:06;;;;;;;12.60;12.20;;;14.60;99.90;;;;;;5013780;28;21040;-72
2023/10/23 10:33:38;;;;;;;12.90;12.50;;;14.80;99.90;;;;;;5008948;28;20464;-70
2023/10/23 10:36:07;;;;;;;12.70;12.30;;;14.50;99.90;;;;;;5014497;27;20468;-70
2023/10/23 10:38:35;;;;;;;13.30;12.90;;;14.60;99.90;;;;;;5013625;27;20486;-70
2023/10/23 10:41:03;;;;;;;13.00;12.60;;;14.50;99.90;;;;;;5010863;27;20462;-71
2023/10/23 10:43:32;;;;;;;12.80;12.40;;;14.70;99.90;;;;;;5008851;27;20466;-70
2023/10/23 10:46:02;;;;;;;13.33;12.93;;;14.60;99.90;;;;;;5015391;28;20492;-70
2023/10/23 10:48:44;;;;;;;13.40;13.00;;;14.50;99.90;;;;;;5010920;28;20474;-71
2023/10/23 10:51:12;;;;;;;12.47;12.07;;;14.60;99.90;;;;;;5008758;27;20494;-70
2023/10/23 10:53:40;;;;;;;12.87;12.47;;;14.70;99.90;;;;;;5014912;27;20479;-71
2023/10/23 10:56:09;;;;;;;13.47;13.07;;;14.70;99.90;;;;;;5013955;27;21035;-71
2023/10/23 10:58:37;;;;;;;13.43;13.03;;;14.50;99.90;;;;;;5010746;27;20812;-71
2023/10/23 11:01:04;;;;;;;12.93;12.53;;;14.50;99.90;;;;;;5004354;27;20467;-70
2023/10/23 11:03:31;;;;;;;12.90;12.50;;;14.40;99.90;;;;;;5013127;28;21173;-71
2023/10/23 11:05:59;;;;;;;13.10;12.70;;;14.50;99.90;;;;;;5013176;27;21024;-71
2023/10/23 11:08:27;;;;;;;13.40;13.00;;;14.50;99.90;;;;;;5010261;28;20464;-70
2023/10/23 11:10:56;;;;;;;13.70;13.30;;;14.40;99.90;;;;;;5014020;27;20961;-72
2023/10/23 11:13:23;;;;;;;13.50;13.10;;;14.40;99.90;;;;;;5014688;28;21354;-71
2023/10/23 11:15:53;;;;;;;13.70;13.30;;;14.30;99.90;;;;;;5009928;28;20473;-70
2023/10/23 11:18:21;;;;;;;13.80;13.40;;;14.50;99.90;;;;;;5015022;28;20483;-70
2023/10/23 11:20:47;;;;;;;13.60;13.20;;;14.50;99.90;;;;;;5009741;27;21483;-70
2023/10/23 11:23:17;;;;;;;13.73;13.33;;;14.80;99.90;;;;;;5013717;27;20467;-71
2023/10/23 11:25:48;;;;;;;13.60;13.20;;;15.00;99.90;;;;;;5011256;28;20471;-72
2023/10/23 11:28:17;;;;;;;14.13;13.63;;;14.70;99.90;;;;;;5009385;28;20524;-70
2023/10/23 11:30:49;;;;;;;13.80;13.40;;;14.90;99.90;;;;;;5012153;27;20920;-70
2023/10/23 11:33:17;;;;;;;14.50;14.00;;;15.20;99.90;;;;;;5012640;28;20465;-72
2023/10/23 11:35:45;;;;;;;13.80;13.40;;;15.10;99.90;;;;;;5010287;28;20471;-70
2023/10/23 11:38:13;;;;;;;14.40;13.90;;;15.00;99.90;;;;;;5011749;28;20480;-70
2023/10/23 11:40:42;;;;;;;14.20;13.70;;;15.20;99.90;;;;;;5013150;28;20478;-71
2023/10/23 11:43:10;;;;;;;14.00;13.50;;;15.30;99.90;;;;;;5008883;28;20476;-71
2023/10/23 11:45:39;;;;;;;14.20;13.70;;;15.30;99.90;;;;;;5012475;28;20499;-70
2023/10/23 11:48:07;;;;;;;14.53;14.03;;;15.40;99.90;;;;;;5007806;28;20860;-71
2023/10/23 11:50:35;;;;;;;14.70;14.20;;;15.60;99.90;;;;;;5012481;28;20571;-72
2023/10/23 11:53:04;;;;;;;13.60;13.20;;;15.60;99.90;;;;;;5012239;28;20497;-72
2023/10/23 11:55:32;;;;;;;13.83;13.43;;;15.80;99.90;;;;;;5008340;28;20468;-71
2023/10/23 11:58:03;;;;;;;14.57;14.07;;;15.60;99.90;;;;;;5014971;28;20873;-70
2023/10/23 12:00:33;;;;;;;13.80;13.40;;;15.60;99.90;;;;;;5013196;28;20462;-72
2023/10/23 12:03:00;;;;;;;14.20;13.70;;;15.70;99.90;;;;;;5012060;28;20490;-71
2023/10/23 12:05:26;;;;;;;14.17;13.67;;;15.80;99.90;;;;;;5007480;28;20495;-70
2023/10/23 12:07:55;;;;;;;14.20;13.70;;;16.00;99.90;;;;;;5010328;28;20472;-71
2023/10/23 12:10:24;;;;;;;13.80;13.40;;;16.10;99.90;;;;;;5014342;28;20572;-71
2023/10/23 12:12:52;;;;;;;13.80;13.40;;;16.00;99.90;;;;;;5012631;28;20488;-71
2023/10/23 12:15:23;;;;;;;14.20;13.70;;;16.10;99.90;;;;;;5010525;28;20469;-69
2023/10/23 12:17:50;;;;;;;14.10;13.60;;;16.10;99.90;;;;;;5012644;28;20588;-70
2023/10/23 12:20:21;;;;;;;14.00;13.60;;;16.20;99.90;;;;;;5010329;28;20839;-69
2023/10/23 12:22:48;;;;;;;14.13;13.63;;;16.30;99.90;;;;;;5007516;28;20736;-73
2023/10/23 12:25:17;;;;;;;14.10;13.60;;;16.40;99.90;;;;;;5009622;28;20473;-71
2023/10/23 12:27:43;;;;;;;14.20;13.70;;;16.50;99.90;;;;;;5010372;28;20462;-72
2023/10/23 12:30:11;;;;;;;14.10;13.63;;;16.60;99.90;;;;;;5015168;27;20469;-73
2023/10/23 12:32:40;;;;;;;13.80;13.40;;;16.60;99.90;;;;;;5015914;27;21010;-72
2023/10/23 12:35:08;;;;;;;13.70;13.30;;;16.60;99.90;;;;;;5014712;27;20986;-71
2023/10/23 12:37:37;;;;;;;14.33;13.83;;;16.70;99.90;;;;;;5017637;27;20815;-73
2023/10/23 12:40:08;;;;;;;14.00;13.50;;;16.60;99.90;;;;;;5009924;28;20489;-71
2023/10/23 12:42:35;;;;;;;13.70;13.30;;;16.50;99.90;;;;;;5015184;27;20806;-71
2023/10/23 12:45:03;;;;;;;13.67;13.27;;;16.60;99.90;;;;;;5016166;27;20999;-71